Forside
METAR-TAF:

METAR-TAF

Lufthavne :

Bagdad Lufthavn

Bagdad, Irak

Breddekreds: 33-15-45N, længdekreds: 44-14-04E, højde: 35 m

Aktuelle vejr

Denne rapport blev lavet for 18 minutter siden, kl. 19:00 UTC
Vind 11 kt fra vest
Temperatur 33°C
Fugtighed 26%
Tryk 1005 hPa
Sigt 10 km eller mere
ingen skyer under 1500m og ingen cumulonimbus

METAR: ORBI 221900Z 28011KT CAVOK 33/11 Q1005 NOSIG

Tid: 22:18 (19:18 UTC)

Vejrudsigter

Denne rapport blev lavet for 3 timer og 18 minutter siden, kl. 16:00 UTC
Foreløbig gælder fra 22 på 18 UTC til 23 på 18 UTC
Vind 15 kt fra vestnordvest
Sigt 10 km eller mere
ingen skyer under 1500m og ingen cumulonimbus

TAF: ORBI 221600Z 2218/2318 29015KT CAVOK

Vejrobservationer og prognoser fra mere end 4000 lufthavne (METAR og TAF).

De gule og røde prikker repræsenterer de meteorologiske stationer.

Flyt musen over at se navnet på stationen.

Så klik over at se vejr observationer og prognoser.

At skifte det kort: Klik på de grønne knapper med et sort kors for at zoome ind; på den grønne knap med en bindestreg for at zoome ud; eller på de grønne pile for tilstødende kort.


METAR-TAF: